• Join FlightAware (Why Join?)
  • Login
  • US Flag 
12:08AM EDT


 

Airport Tracker/Info


-or-


 

Live Flight TrackerFlight Track Log ✈ EJM685 ✈ 03-Jan-2013 ✈ KASE - KTEB

Flight Track Log - Related Links

Times and Time Zones

All times are in EST time to prevent confusion due to time zone crossing. See the EJM685 flight status page for this flight to view local times or setup timezone preferences in your user account.

Time Position Orientation Groundspeed Altitude Reporting Facility
EST Latitude Longitude Course Direction KTS MPH feet Rate Location/Type
04:28PM 39.2933 -106.9725 1000° North 313 360 12,400  Level Denver Center
04:29PM 39.3461 -107.0719 14° North 344 396 15,000 2,640 Climbing Denver Center
04:30PM 39.4400 -107.0539 38° Northeast 343 395 18,000 2,760 Climbing Denver Center
04:31PM 39.5336 -107.0225 72° East 356 410 20,800 2,220 Climbing Denver Center
04:32PM 39.6436 -106.9869 74° East 363 418 22,600 2,100 Climbing Denver Center
04:33PM 39.7758 -106.9490 1000° North 25,400 2,400 Climbing FlightAware ADS-B
04:34PM 39.8331 -106.9310 14° North 407 468 26,700 2,400 Climbing FlightAware ADS-B
04:35PM 39.9032 -106.8600 38° Northeast 390 449 28,600 2,460 Climbing FlightAware ADS-B
04:36PM 39.9374 -106.7260 72° East 395 455 31,200 2,280 Climbing FlightAware ADS-B
04:37PM 39.9686 -106.5880 74° East 404 465 33,200 1,920 Climbing FlightAware ADS-B
04:37PM 39.9844 -106.5170 74° East 409 471 34,200 2,220 Climbing FlightAware ADS-B
04:38PM 40.0035 -106.4190 76° East 387 445 35,900 2,280 Climbing FlightAware ADS-B
04:39PM 40.0139 -106.3200 82° East 398 458 37,400 1,800 Climbing FlightAware ADS-B
04:39PM 40.0233 -106.2290 82° East 408 470 38,300 1,440 Climbing FlightAware ADS-B
04:40PM 40.0312 -106.1500 83° East 405 466 39,100 1,020 Climbing FlightAware ADS-B
04:40PM 40.0400 -106.0660 82° East 425 489 39,500 780 Climbing FlightAware ADS-B
04:41PM 40.0486 -105.9820 82° East 436 502 40,000 900 Climbing FlightAware ADS-B
04:41PM 40.0572 -105.8970 82° East 442 509 40,500 960 Climbing FlightAware ADS-B
04:42PM 40.0682 -105.7860 83° East 454 522 41,200 840 Climbing FlightAware ADS-B
04:43PM 40.0774 -105.6920 83° East 473 544 41,600 660 Climbing FlightAware ADS-B
04:43PM 40.0889 -105.5740 83° East 466 536 42,100 660 Climbing FlightAware ADS-B
04:44PM 40.0968 -105.4910 83° East 438 504 42,400 720 Climbing FlightAware ADS-B
04:44PM 40.1057 -105.3990 83° East 476 548 42,900 900 Climbing FlightAware ADS-B
04:45PM 40.1149 -105.3030 83° East 483 556 43,400 900 Climbing FlightAware ADS-B
04:45PM 40.1228 -105.2190 83° East 445 512 43,900 900 Climbing FlightAware ADS-B
04:46PM 40.1318 -105.1200 83° East 478 550 44,400 900 Climbing FlightAware ADS-B
04:47PM 40.1403 -105.0310 83° East 463 533 44,900 540 Climbing FlightAware ADS-B
04:47PM 40.1480 -104.9460 83° East 495 570 45,000 60 Climbing FlightAware ADS-B
04:48PM 40.1560 -104.8580 83° East 485 558 45,000  Level FlightAware ADS-B
04:48PM 40.1641 -104.7680 83° East 492 566 45,000  Level FlightAware ADS-B
04:49PM 40.1718 -104.6800 83° East 513 590 45,000  Level FlightAware ADS-B
04:49PM 40.1806 -104.5900 83° East 492 566 45,000  Level FlightAware ADS-B
04:50PM 40.1925 -104.5000 80° East 451 519 45,000  Level FlightAware ADS-B
04:50PM 40.2067 -104.4080 79° East 481 554 45,000  Level FlightAware ADS-B
04:51PM 40.2213 -104.3120 79° East 493 567 45,000  Level FlightAware ADS-B
04:51PM 40.2348 -104.2230 79° East 500 575 45,000  Level FlightAware ADS-B
04:52PM 40.2498 -104.1250 79° East 495 570 45,000  Level FlightAware ADS-B
04:52PM 40.2628 -104.0380 79° East 462 532 45,000  Level FlightAware ADS-B
04:53PM 40.2774 -103.9400 79° East 490 564 45,000  Level FlightAware ADS-B
04:53PM 40.2911 -103.8490 79° East 483 556 45,000  Level FlightAware ADS-B
04:54PM 40.3050 -103.7550 79° East 444 511 45,000  Level FlightAware ADS-B
04:54PM 40.3188 -103.6600 79° East 499 574 45,000  Level FlightAware ADS-B
04:55PM 40.3318 -103.5720 79° East 489 563 45,000  Level FlightAware ADS-B
04:55PM 40.3447 -103.4830 79° East 498 573 45,000  Level FlightAware ADS-B
04:56PM 40.3571 -103.3970 79° East 490 564 45,000  Level FlightAware ADS-B
04:56PM 40.3698 -103.3090 79° East 489 563 45,000  Level FlightAware ADS-B
04:57PM 40.3825 -103.2210 79° East 486 559 45,000  Level FlightAware ADS-B
04:57PM 40.3948 -103.1330 80° East 479 551 45,000  Level FlightAware ADS-B
04:58PM 40.4073 -103.0450 79° East 486 559 45,000  Level FlightAware ADS-B
04:58PM 40.4209 -102.9470 80° East 498 573 45,000  Level FlightAware ADS-B
04:59PM 40.4338 -102.8560 79° East 481 554 45,000  Level FlightAware ADS-B
04:59PM 40.4462 -102.7660 80° East 493 567 45,000  Level FlightAware ADS-B
05:00PM 40.4585 -102.6760 80° East 502 578 45,000  Level FlightAware ADS-B
05:00PM 40.4705 -102.5890 80° East 457 526 45,000  Level FlightAware ADS-B
05:01PM 40.4834 -102.4950 80° East 507 583 45,000  Level FlightAware ADS-B
05:02PM 40.4956 -102.4040 80° East 492 566 45,000  Level FlightAware ADS-B
05:02PM 40.5081 -102.3110 80° East 493 567 45,000  Level FlightAware ADS-B
05:03PM 40.5207 -102.2180 80° East 497 572 45,000  Level FlightAware ADS-B
05:03PM 40.5328 -102.1250 80° East 450 518 45,000  Level FlightAware ADS-B
05:04PM 40.5455 -102.0290 80° East 492 566 45,000  Level FlightAware ADS-B
05:04PM 40.5574 -101.9380 80° East 515 593 45,000  Level FlightAware ADS-B
05:05PM 40.5698 -101.8450 80° East 501 577 45,000  Level FlightAware ADS-B
05:05PM 40.5818 -101.7510 80° East 506 582 45,000  Level FlightAware ADS-B
05:06PM 40.5934 -101.6600 80° East 496 571 45,000  Level FlightAware ADS-B
05:06PM 40.6060 -101.5620 80° East 512 589 45,000  Level FlightAware ADS-B
05:07PM 40.6183 -101.4650 80° East 500 575 45,000  Level FlightAware ADS-B
05:07PM 40.6300 -101.3730 80° East 511 588 45,000  Level FlightAware ADS-B
05:08PM 40.6415 -101.2810 81° East 515 593 45,000  Level FlightAware ADS-B
05:08PM 40.6528 -101.1900 81° East 499 574 45,000  Level FlightAware ADS-B
05:09PM 40.6638 -101.1020 81° East 458 527 45,000  Level FlightAware ADS-B
05:09PM 40.6753 -101.0070 81° East 514 592 45,000  Level FlightAware ADS-B
05:10PM 40.6865 -100.9160 81° East 495 570 45,000  Level FlightAware ADS-B
05:10PM 40.6976 -100.8240 81° East 499 574 45,000  Level FlightAware ADS-B
05:11PM 40.7088 -100.7310 81° East 509 586 45,000  Level FlightAware ADS-B
05:11PM 40.7198 -100.6390 81° East 510 587 45,000  Level FlightAware ADS-B
05:12PM 40.7414 -100.5894 81° East 504 580 45,000  Level Minneapolis Center
05:12PM 40.7503 -100.4894 83° East 502 578 45,000  Level Denver Center
05:13PM 40.7742 -100.2864 81° East 503 579 45,000  Level Denver Center
05:14PM 40.7939 -100.1119 81° East 504 580 45,000  Level Denver Center
05:15PM 40.8181 -99.9069 81° East 506 582 45,000  Level Denver Center
05:17PM 40.8403 -99.7083 82° East 506 582 45,000  Level Denver Center
05:18PM 40.8606 -99.5256 82° East 504 580 45,000  Level Denver Center
05:19PM 40.8806 -99.3431 82° East 504 580 45,000  Level Denver Center
05:20PM 40.9003 -99.1614 82° East 502 578 45,000  Level Denver Center
05:20PM 40.9100 -99.0714 82° East 504 580 45,000  Level Minneapolis Center
05:21PM 40.9286 -98.8869 82° East 505 581 45,000  Level Minneapolis Center
05:22PM 40.9486 -98.7017 82° East 508 585 45,000  Level Minneapolis Center
05:23PM 40.9672 -98.5172 82° East 508 585 45,000  Level Minneapolis Center
05:24PM 40.9869 -98.3239 82° East 506 582 45,000  Level Minneapolis Center
05:25PM 41.0050 -98.1389 83° East 507 583 45,000  Level Minneapolis Center
05:26PM 41.0231 -97.9550 83° East 506 582 45,000  Level Minneapolis Center
05:27PM 41.0403 -97.7708 83° East 504 580 45,000  Level Minneapolis Center
05:28PM 41.0606 -97.5472 83° East 508 585 45,000  Level Minneapolis Center
05:29PM 41.0772 -97.3694 83° East 510 587 45,000  Level Minneapolis Center
05:30PM 41.0942 -97.1836 83° East 510 587 45,000  Level Minneapolis Center
05:31PM 41.1114 -96.9958 83° East 512 589 45,000  Level Minneapolis Center
05:32PM 41.1286 -96.8086 83° East 513 590 45,000  Level Minneapolis Center
05:33PM 41.1444 -96.6208 84° East 514 592 45,000  Level Minneapolis Center
05:34PM 41.1631 -96.3961 84° East 514 592 45,000  Level Minneapolis Center
05:35PM 41.1761 -96.2331 84° East 513 590 45,000  Level Minneapolis Center
05:36PM 41.1950 -96.0114 83° East 507 583 45,000  Level Minneapolis Center
05:38PM 41.2086 -95.8244 84° East 508 585 45,000  Level Minneapolis Center
05:39PM 41.2236 -95.6275 84° East 513 590 45,000  Level Minneapolis Center
05:40PM 41.2369 -95.4367 85° East 510 587 45,000  Level Minneapolis Center
05:41PM 41.2511 -95.2497 84° East 510 587 45,000  Level Minneapolis Center
05:42PM 41.2653 -95.0597 84° East 515 593 45,000  Level Minneapolis Center
05:43PM 41.2781 -94.8714 85° East 515 593 45,000  Level Minneapolis Center
05:44PM 41.2908 -94.6819 85° East 515 593 45,000  Level Minneapolis Center
05:45PM 41.3039 -94.4911 85° East 517 595 45,000  Level Minneapolis Center
05:46PM 41.3150 -94.3014 85° East 517 595 45,000  Level Minneapolis Center
05:47PM 41.3292 -94.0839 85° East 515 593 45,000  Level Minneapolis Center
05:48PM 41.3417 -93.8947 85° East 515 593 45,000  Level Minneapolis Center
05:49PM 41.3531 -93.7044 85° East 517 595 45,000  Level Minneapolis Center
05:50PM 41.3642 -93.5136 86° East 518 596 45,000  Level Minneapolis Center
05:51PM 41.3761 -93.3211 85° East 520 598 45,000  Level Minneapolis Center
05:52PM 41.3864 -93.1286 86° East 522 601 45,000  Level Minneapolis Center
05:53PM 41.3992 -92.9000 86° East 520 598 45,000  Level Minneapolis Center
05:54PM 41.4092 -92.7086 86° East 520 598 45,000  Level Minneapolis Center
05:55PM 41.4161 -92.5539 87° East 519 597 45,000  Level Chicago Center
05:56PM 41.4264 -92.3636 86° East 521 600 45,000  Level Chicago Center
05:57PM 41.4344 -92.1719 87° East 522 601 45,000  Level Chicago Center
05:58PM 41.4500 -91.9400 85° East 532 612 45,000  Level Chicago Center
05:59PM 41.4667 -91.7489 83° East 529 609 45,000  Level Chicago Center
06:00PM 41.4814 -91.5567 84° East 527 606 45,000  Level Chicago Center
06:01PM 41.4967 -91.3642 84° East 528 608 45,000  Level Chicago Center
06:02PM 41.5119 -91.1519 84° East 528 608 45,000  Level Chicago Center
06:03PM 41.5281 -90.9378 84° East 532 612 45,000  Level Chicago Center
06:04PM 41.5422 -90.7431 84° East 533 613 45,000  Level Chicago Center
06:05PM 41.5547 -90.5606 85° East 533 613 45,000  Level Chicago Center
06:06PM 41.5683 -90.3631 85° East 532 612 45,000  Level Chicago Center
06:07PM 41.5814 -90.1664 85° East 531 611 45,000  Level Chicago Center
06:08PM 41.5975 -89.9292 85° East 532 612 45,000  Level Chicago Center
06:09PM 41.6092 -89.7283 85° East 539 620 45,000  Level Chicago Center
06:10PM 41.6222 -89.5250 85° East 535 616 45,000  Level Chicago Center
06:11PM 41.6339 -89.3256 85° East 541 623 45,000  Level Chicago Center
06:12PM 41.6442 -89.1264 86° East 540 621 45,000  Level Chicago Center
06:13PM 41.6553 -88.9261 86° East 540 621 45,000  Level Chicago Center
06:14PM 41.6669 -88.7250 87° East 542 624 45,000  Level Chicago Center
06:16PM 41.6660 -88.4610 85° East 45,000  Level FlightAware
06:17PM 41.6800 -88.1690 86° East 45,000  Level FlightAware
06:18PM 41.6880 -88.0060 86° East 45,000  Level FlightAware
06:19PM 41.7000 -87.7290 87° East 45,000  Level FlightAware
06:20PM 43.6880 -83.7210 55° Northeast  Descending FlightAware
06:21PM 41.7267 -87.4603 84° East 547 629 45,000 3,720 Climbing Chicago Center
06:23PM 41.7500 -87.0220 233° Southwest 45,000  Level FlightAware
06:23PM 41.7610 -86.8950 83° East 45,000  Level FlightAware
06:24PM 41.7750 -86.7330 83° East 45,000  Level FlightAware
06:25PM 41.7840 -86.6270 83° East 45,000  Level FlightAware
06:25PM 41.7980 -86.4480 84° East 45,000  Level FlightAware
06:26PM 41.8070 -86.3450 83° East 45,000  Level FlightAware
06:27PM 41.8200 -86.1790 84° East 45,000  Level FlightAware
06:28PM 41.8320 -86.0270 84° East 45,000  Level FlightAware
06:28PM 41.8400 -85.9170 84° East 45,000  Level FlightAware
06:29PM 41.8520 -85.7580 84° East 45,000  Level FlightAware
06:30PM 41.8640 -85.6020 84° East 45,000  Level FlightAware
06:31PM 41.8810 -85.3670 84° East 45,000  Level FlightAware
06:32PM 43.8750 -83.7210 31° Northeast  Descending FlightAware
06:32PM 41.9158 -85.1531 85° East 550 633 45,000 192,840 Climbing Chicago Center
06:32PM 41.9189 -85.1547 85° East 557 641 45,000 -120 Level Cleveland Center
06:34PM 41.9300 -84.6530 200° South 45,000 -120 Level FlightAware
06:35PM 41.9390 -84.5210 85° East 45,000 -120 Level FlightAware
06:36PM 41.9490 -84.3540 85° East 45,000 -120 Level FlightAware
06:36PM 41.9570 -84.2320 85° East 45,000 -120 Level FlightAware
06:38PM 41.9760 -83.9270 85° East 45,000 -120 Level FlightAware
06:39PM 41.9850 -83.7690 86° East 45,000 -120 Level FlightAware
06:39PM 41.9910 -83.6570 86° East 45,000 -120 Level FlightAware
06:40PM 42.0020 -83.4740 85° East 45,000 -120 Level FlightAware
06:41PM 42.0110 -83.3100 86° East 45,000 -120 Level FlightAware
06:42PM 42.0190 -83.1470 86° East 45,000 -120 Level FlightAware
06:42PM 42.0260 -83.0190 86° East 45,000 -180 Level FlightAware
06:43PM 42.0320 -82.8980 86° East 45,000 -180 Level FlightAware
06:44PM 42.0410 -82.7280 86° East 45,000 -180 Level FlightAware
06:44PM 42.0470 -82.5780 87° East 45,000 -180 Level FlightAware
06:45PM 42.0460 -82.4360 90° East 45,000 -180 Level FlightAware
06:46PM 42.0420 -82.2930 92° East 45,000 -180 Level FlightAware
06:47PM 42.0380 -82.1300 92° East 45,000 -180 Level FlightAware
06:47PM 42.0350 -82.0090 92° East 45,000 -180 Level FlightAware
06:48PM 42.0290 -81.8060 92° East 45,000 -180 Level FlightAware
06:49PM 42.0240 -81.6640 93° East 45,000 -180 Level FlightAware
06:50PM 42.0190 -81.5040 92° East 45,000 -180 Level FlightAware
06:50PM 42.0150 -81.3650 92° East 45,000 -240 Level FlightAware
06:51PM 42.0080 -81.1630 93° East 45,000 -240 Level FlightAware
06:52PM 42.0020 -81.0130 93° East 45,000 -240 Level FlightAware
06:52PM 41.9980 -80.8820 92° East 45,000 -240 Level FlightAware
06:53PM 41.9920 -80.7320 93° East 45,000 -240 Level FlightAware
06:54PM 41.9860 -80.5940 93° East 45,000 -240 Level FlightAware
06:55PM 41.9790 -80.4090 93° East 45,000 -300 Level FlightAware
06:55PM 41.9740 -80.2810 93° East 45,000 -300 Level FlightAware
06:56PM 41.9670 -80.1310 94° East 45,000 -300 Level FlightAware
06:57PM 41.9610 -79.9810 93° East 45,000 -360 Level FlightAware
06:57PM 41.9540 -79.8240 93° East 45,000 -360 Level FlightAware
06:58PM 41.9480 -79.7030 94° East 45,000 -420 Level FlightAware
06:59PM 41.9420 -79.5680 93° East 45,000 -420 Level FlightAware
06:59PM 41.9340 -79.4180 94° East 45,000 -480 Level FlightAware
07:00PM 41.9250 -79.2330 94° East 45,000 -540 Level FlightAware
07:01PM 41.9170 -79.0760 94° East 45,000 -600 Level FlightAware
07:02PM 41.9100 -78.9480 94° East 45,000 -720 Level FlightAware
07:02PM 41.9040 -78.8340 94° East 45,000 -840 Level FlightAware
07:03PM 41.8950 -78.6600 94° East 45,000 -960 Level FlightAware
07:04PM 41.8880 -78.5390 94° East 45,000 -1,320 Level FlightAware
07:04PM 41.8790 -78.3870 94° East 44,400 -1,800 Descending FlightAware
07:05PM 41.8842 -78.1761 109° East 566 651 42,100 -2,220 Descending New York Center
07:06PM 41.8700 -77.9656 109° East 566 651 40,100 -1,800 Descending New York Center
07:08PM 41.8070 -77.6840 98° East 37,600 -1,740 Descending FlightAware
07:08PM 41.7700 -77.5430 109° East 36,200 -1,560 Descending FlightAware
07:09PM 41.7330 -77.4010 109° East 35,300 -1,200 Descending FlightAware
07:09PM 41.7322 -77.3586 109° East 573 659 35,000 -1,440 Descending New York Center
07:10PM 41.6789 -77.1561 109° East 573 659 33,500 -1,740 Descending New York Center
07:11PM 41.6267 -76.9622 109° East 568 654 31,600 -2,040 Descending New York Center
07:12PM 41.5739 -76.7744 110° East 557 641 29,500 -1,860 Descending New York Center
07:13PM 41.5300 -76.6097 111° Southeast 531 611 27,900 -1,740 Descending New York Center
07:14PM 41.4839 -76.4422 111° Southeast 506 582 26,000 -1,860 Descending New York Center
07:16PM 41.3762 -76.0893 109° East 22,500 -1,860 Descending FlightAware ADS-B
07:17PM 41.3513 -76.0004 110° East 447 514 21,600 -1,920 Descending FlightAware ADS-B
07:18PM 41.3150 -75.8700 110° East 20,200 -1,980 Descending FlightAware
07:18PM 41.2820 -75.7550 111° Southeast 18,900 -2,040 Descending FlightAware
07:19PM 41.2600 -75.6783 111° Southeast 18,100 -2,100 Descending FlightAware ADS-B
07:20PM 41.2090 -75.5210 113° Southeast 15,900 -2,100 Descending FlightAware
07:21PM 41.1750 -75.4200 114° Southeast 14,000 -2,160 Descending FlightAware
07:21PM 41.1490 -75.3430 114° Southeast 12,600 -1,980 Descending FlightAware
07:22PM 41.1267 -75.2525 114° Southeast 377 434 10,900 -1,980 Descending New York Center
07:23PM 41.0872 -75.1372 114° Southeast 325 374 8,700 -2,040 Descending New York Center
07:24PM 41.0533 -75.0331 113° Southeast 313 360 6,900 -1,380 Descending New York Center
07:25PM 41.0236 -74.9378 112° Southeast 308 354 6,000 -900 Descending New York Center
07:26PM 41.0217 -74.8139 91° East 297 342 5,200 -780 Descending New York Center
07:27PM 41.0247 -74.7178 88° East 292 336 4,500 -720 Descending New York Center
07:28PM 41.0247 -74.5967 90° East 292 336 3,800 -600 Descending New York Center
07:29PM 41.0256 -74.5006 89° East 292 336 3,300 -420 Descending New York Center
07:30PM 41.0250 -74.3878 90° East 287 330 3,000 -180 Descending New York Center
07:31PM 41.0278 -74.2944 88° East 287 330 3,000 -120 Level New York Center
07:32PM 41.0333 -74.2167 85° East 266 306 2,800 -480 Descending New York TRACON
07:33PM 41.0167 -74.1167 102° East 238 274 2,200 -420 Descending New York TRACON
07:34PM 40.9833 -74.0667 131° Southeast 201 231 2,000 -300 Descending New York TRACON
07:36PM 40.9167 -74.0500 169° South 135 155 1,300 -480 Descending New York TRACON
07:38PM 40.8344 -74.0650 188° South 126 145 200 -540 Descending New York Center
07:40PM 40.8500 -74.0500 North  Level FlightAware Approximate
07:47PM 40.8501 -74.0608 North  Level Estimated